Main page
METAR-TAF:

METAR-TAF

Airports :

Inverness Airport

Inverness, Scotland

latitude: 57-32N, longitude: 004-03W, elevation: 9 m

Current weather observation

The report was made 14 minutes ago, at 04:20 UTC
Wind 7 kt from the South/Southwest
Temperature 11°C
Humidity 82%
Pressure 1001 hPa
Visibility 10 km or more
Few clouds at a height of 3500 ft

METAR: EGPE 160420Z 21007KT 9999 FEW035 11/08 Q1001

Time: 05:34 (04:34 UTC)

Forecast

The report was made 2 hours and 31 minutes ago, at 02:03 UTC
Forecast valid from 16 at 03 UTC to 16 at 12 UTC
Wind 7 kt from the Southwest
Visibility 10 km or more
Few clouds at a height of 4000 ft
Temporary
from 16 at 09 UTC to 16 at 12 UTC
Wind 15 kt from the Southwest with gusts up to 25 kt
Visibility: 7000 m
rain showers

TAF: EGPE 160203Z 1603/1612 22007KT 9999 FEW040 TEMPO 1609/1612 23015G25KT 7000 SHRA

Weather observations and forecasts of more than 4000 airports (METAR and TAF reports).

The available stations are represented by yellow and red dots on the map.

Hover mouse over dot to see the name of the station.

Then click to see weather observations and forecasts.

To change the map : click on the green buttons with a black cross to zoom in, on the green button with a dash to zoom out, or on the green arrows for adjacent maps.


METAR-TAF: